Oneida, IL (61467)

06:09 AM CDT del 29 Marzo 2017 (GMT -0500)
Northwest Oneida | | Change Station

Alt. 814 ft 41.08 °N, 90.23 °W | Updated 23 seconds ago

Coperto
Coperto
42.6 °F
Sembra 40 °F
N
4.0
Vento Variabile Vento da ENE
Gusts 4.9 mph

Oggi
Massima -- | Minima -- °F
--% Possibilità di precip.
Ieri
Massima -- | Minima -- °F
Precip. -- in
Pressione 30.12 in
Visibilità 5.0 miglia
Nuvole Coperto 600 ft
Raffreddamento del vento 40 °F
Punto di rugiada 42 °F
Umidità 98%
Piovosità 0.00 in
Spessore del manto nevoso Non disponibile.
6:48 AM 7:23 PM
Luna crescente, 3% visible
METAR KGBG 291055Z AUTO 07009KT 5SM BR OVC006 06/06 A3012 RMK AO2 T00550055
Pressione 30.12 in
Visibilità 5.0 miglia
Nuvole Coperto 600 ft
Raffreddamento del vento 40 °F
Punto di rugiada 42 °F
Umidità 98%
Piovosità 0.00 in
Spessore del manto nevoso Non disponibile.
6:48 AM 7:23 PM
Luna crescente, 3% visible
METAR KGBG 291055Z AUTO 07009KT 5SM BR OVC006 06/06 A3012 RMK AO2 T00550055

Get Severe Weather Alerts

Thanks for signing up!

Be on the lookout for a verification email in your inbox.

You'll start receiving the daily forecast at 8 AM.

×

10-Day Weather Forecast

Almanac

Astronomia

Mar. 29, 2017 Alba Tramonto
Ora attuale
Crepuscolo civile
Crepuscolo nautico
Crepuscolo astronomico
Luna
Estensione della luce visibile
Lunghezza del giorno
Tomorrow will be .
, % of the Moon is Illuminated

Gli estremi di oggi

State Highs State Lows

Community

WunderPhotos

Upload Photos

1,962,540 foto caricate!

WunderBlog® & News

Nearby

Qualità dell'aria

  Qualità dell'aria Indice AQ Inquinante
Not available.

Profondità neve

Stazione Profondità Altitudine

Attività sismica

Città  Distanza Mag. Data & Ora
Minimo Magnitudo Mostrato è 2.5.

Attività sismica

Città  Distanza Mag. Data & Ora
Minimo Magnitudo Mostrato è 2.5.

Temperature delle acque costiere

Località Temperatura

Stations

Stazioni meteo nelle vicinanze

Ubicazione della stazione Temp. Raffreddamento del vento Punto di rugiada Umidità Vento Precip. Alt. Aggiornato Tipo
                   

Watches & Warnings

There are currently no watches in effect.